sensor_id;sensor_type;location;lat;lon;timestamp;temperature;humidity
3954;DHT22;1991;48.682;9.030;2023-12-29T00:00:38;8.70;99.90
3954;DHT22;1991;48.682;9.030;2023-12-29T00:03:03;8.60;99.90
3954;DHT22;1991;48.682;9.030;2023-12-29T00:05:29;8.60;99.90
3954;DHT22;1991;48.682;9.030;2023-12-29T00:07:56;8.60;99.90
3954;DHT22;1991;48.682;9.030;2023-12-29T00:10:21;8.70;99.90
3954;DHT22;1991;48.682;9.030;2023-12-29T00:12:47;8.50;99.90
3954;DHT22;1991;48.682;9.030;2023-12-29T00:15:12;8.50;99.90
3954;DHT22;1991;48.682;9.030;2023-12-29T00:17:38;8.50;99.90
3954;DHT22;1991;48.682;9.030;2023-12-29T00:20:06;8.50;99.90
3954;DHT22;1991;48.682;9.030;2023-12-29T00:22:33;8.40;99.90
3954;DHT22;1991;48.682;9.030;2023-12-29T00:24:59;8.40;99.90
3954;DHT22;1991;48.682;9.030;2023-12-29T00:27:25;8.40;99.90
3954;DHT22;1991;48.682;9.030;2023-12-29T00:29:50;8.30;99.90
3954;DHT22;1991;48.682;9.030;2023-12-29T00:32:16;8.30;99.90
3954;DHT22;1991;48.682;9.030;2023-12-29T00:34:41;8.30;99.90
3954;DHT22;1991;48.682;9.030;2023-12-29T00:37:07;8.40;99.90
3954;DHT22;1991;48.682;9.030;2023-12-29T00:39:34;8.40;99.90
3954;DHT22;1991;48.682;9.030;2023-12-29T00:42:04;8.40;99.90
3954;DHT22;1991;48.682;9.030;2023-12-29T00:44:29;8.40;99.90
3954;DHT22;1991;48.682;9.030;2023-12-29T00:46:55;8.40;99.90
3954;DHT22;1991;48.682;9.030;2023-12-29T00:49:21;8.30;99.90
3954;DHT22;1991;48.682;9.030;2023-12-29T00:51:47;8.20;99.90
3954;DHT22;1991;48.682;9.030;2023-12-29T00:54:13;8.10;99.90
3954;DHT22;1991;48.682;9.030;2023-12-29T00:56:39;8.00;99.90
3954;DHT22;1991;48.682;9.030;2023-12-29T00:59:04;8.10;99.90
3954;DHT22;1991;48.682;9.030;2023-12-29T01:01:34;8.20;99.90
3954;DHT22;1991;48.682;9.030;2023-12-29T01:04:00;8.30;99.90
3954;DHT22;1991;48.682;9.030;2023-12-29T01:06:25;8.40;99.90
3954;DHT22;1991;48.682;9.030;2023-12-29T01:08:51;8.40;99.90
3954;DHT22;1991;48.682;9.030;2023-12-29T01:11:17;8.40;99.90
3954;DHT22;1991;48.682;9.030;2023-12-29T01:13:42;8.50;99.90
3954;DHT22;1991;48.682;9.030;2023-12-29T01:16:08;8.50;99.90
3954;DHT22;1991;48.682;9.030;2023-12-29T01:18:33;8.50;99.90
3954;DHT22;1991;48.682;9.030;2023-12-29T01:20:59;8.50;99.90
3954;DHT22;1991;48.682;9.030;2023-12-29T01:23:24;8.50;99.90
3954;DHT22;1991;48.682;9.030;2023-12-29T01:25:50;8.60;99.90
3954;DHT22;1991;48.682;9.030;2023-12-29T01:28:15;8.60;99.90
3954;DHT22;1991;48.682;9.030;2023-12-29T01:30:41;8.70;99.90
3954;DHT22;1991;48.682;9.030;2023-12-29T01:33:06;8.70;99.90
3954;DHT22;1991;48.682;9.030;2023-12-29T01:35:32;8.70;99.90
3954;DHT22;1991;48.682;9.030;2023-12-29T01:37:57;8.70;99.90
3954;DHT22;1991;48.682;9.030;2023-12-29T01:40:23;8.70;99.90
3954;DHT22;1991;48.682;9.030;2023-12-29T01:42:50;8.70;99.90
3954;DHT22;1991;48.682;9.030;2023-12-29T01:45:22;8.70;99.90
3954;DHT22;1991;48.682;9.030;2023-12-29T01:47:49;8.60;99.90
3954;DHT22;1991;48.682;9.030;2023-12-29T01:50:17;8.60;99.90
3954;DHT22;1991;48.682;9.030;2023-12-29T01:52:44;8.60;99.90
3954;DHT22;1991;48.682;9.030;2023-12-29T01:55:12;8.60;99.90
3954;DHT22;1991;48.682;9.030;2023-12-29T01:57:40;8.50;99.90
3954;DHT22;1991;48.682;9.030;2023-12-29T02:00:07;8.50;99.90
3954;DHT22;1991;48.682;9.030;2023-12-29T02:02:33;8.60;99.90
3954;DHT22;1991;48.682;9.030;2023-12-29T02:04:59;8.60;99.90
3954;DHT22;1991;48.682;9.030;2023-12-29T02:07:27;8.50;99.90
3954;DHT22;1991;48.682;9.030;2023-12-29T02:09:56;8.60;99.90
3954;DHT22;1991;48.682;9.030;2023-12-29T02:12:22;8.50;99.90
3954;DHT22;1991;48.682;9.030;2023-12-29T02:14:48;8.60;99.90
3954;DHT22;1991;48.682;9.030;2023-12-29T02:17:26;8.60;99.90
3954;DHT22;1991;48.682;9.030;2023-12-29T02:19:52;8.60;99.90
3954;DHT22;1991;48.682;9.030;2023-12-29T02:22:18;8.60;99.90
3954;DHT22;1991;48.682;9.030;2023-12-29T02:24:50;8.60;99.90
3954;DHT22;1991;48.682;9.030;2023-12-29T02:32:50;8.60;99.90
3954;DHT22;1991;48.682;9.030;2023-12-29T02:35:23;8.60;99.90
3954;DHT22;1991;48.682;9.030;2023-12-29T02:37:49;8.50;99.90
3954;DHT22;1991;48.682;9.030;2023-12-29T02:40:15;8.50;99.90
3954;DHT22;1991;48.682;9.030;2023-12-29T02:42:47;8.50;99.90
3954;DHT22;1991;48.682;9.030;2023-12-29T02:45:14;8.40;99.90
3954;DHT22;1991;48.682;9.030;2023-12-29T02:47:41;8.40;99.90
3954;DHT22;1991;48.682;9.030;2023-12-29T02:50:08;8.40;99.90
3954;DHT22;1991;48.682;9.030;2023-12-29T02:52:34;8.40;99.90
3954;DHT22;1991;48.682;9.030;2023-12-29T02:55:00;8.40;99.90
3954;DHT22;1991;48.682;9.030;2023-12-29T02:57:25;8.30;99.90
3954;DHT22;1991;48.682;9.030;2023-12-29T02:59:51;8.40;99.90
3954;DHT22;1991;48.682;9.030;2023-12-29T03:02:16;8.40;99.90
3954;DHT22;1991;48.682;9.030;2023-12-29T03:04:42;8.40;99.90
3954;DHT22;1991;48.682;9.030;2023-12-29T03:07:08;8.40;99.90
3954;DHT22;1991;48.682;9.030;2023-12-29T03:09:34;8.40;99.90
3954;DHT22;1991;48.682;9.030;2023-12-29T03:11:59;8.30;99.90
3954;DHT22;1991;48.682;9.030;2023-12-29T03:14:25;8.30;99.90
3954;DHT22;1991;48.682;9.030;2023-12-29T03:16:50;8.30;99.90
3954;DHT22;1991;48.682;9.030;2023-12-29T03:19:16;8.40;99.90
3954;DHT22;1991;48.682;9.030;2023-12-29T03:21:41;8.40;99.90
3954;DHT22;1991;48.682;9.030;2023-12-29T03:24:07;8.40;99.90
3954;DHT22;1991;48.682;9.030;2023-12-29T03:26:32;8.40;99.90
3954;DHT22;1991;48.682;9.030;2023-12-29T03:28:58;8.40;99.90
3954;DHT22;1991;48.682;9.030;2023-12-29T03:31:24;8.40;99.90
3954;DHT22;1991;48.682;9.030;2023-12-29T03:33:49;8.40;99.90
3954;DHT22;1991;48.682;9.030;2023-12-29T03:36:15;8.40;99.90
3954;DHT22;1991;48.682;9.030;2023-12-29T03:38:40;8.40;99.90
3954;DHT22;1991;48.682;9.030;2023-12-29T03:41:07;8.40;99.90
3954;DHT22;1991;48.682;9.030;2023-12-29T03:43:32;8.40;99.90
3954;DHT22;1991;48.682;9.030;2023-12-29T03:45:58;8.30;99.90
3954;DHT22;1991;48.682;9.030;2023-12-29T03:48:23;8.20;99.90
3954;DHT22;1991;48.682;9.030;2023-12-29T03:50:49;8.00;99.90
3954;DHT22;1991;48.682;9.030;2023-12-29T03:53:15;7.90;99.90
3954;DHT22;1991;48.682;9.030;2023-12-29T03:55:41;7.80;99.90
3954;DHT22;1991;48.682;9.030;2023-12-29T03:58:06;7.60;99.90
3954;DHT22;1991;48.682;9.030;2023-12-29T04:00:32;7.70;99.90
3954;DHT22;1991;48.682;9.030;2023-12-29T04:02:58;7.60;99.90
3954;DHT22;1991;48.682;9.030;2023-12-29T04:05:23;7.70;99.90
3954;DHT22;1991;48.682;9.030;2023-12-29T04:07:49;7.80;99.90
3954;DHT22;1991;48.682;9.030;2023-12-29T04:10:14;7.90;99.90
3954;DHT22;1991;48.682;9.030;2023-12-29T04:12:40;8.00;99.90
3954;DHT22;1991;48.682;9.030;2023-12-29T04:15:06;8.00;99.90
3954;DHT22;1991;48.682;9.030;2023-12-29T04:17:32;8.00;99.90
3954;DHT22;1991;48.682;9.030;2023-12-29T04:19:57;8.00;99.90
3954;DHT22;1991;48.682;9.030;2023-12-29T04:22:23;8.10;99.90
3954;DHT22;1991;48.682;9.030;2023-12-29T04:24:48;8.10;99.90
3954;DHT22;1991;48.682;9.030;2023-12-29T04:27:15;8.10;99.90
3954;DHT22;1991;48.682;9.030;2023-12-29T04:29:40;8.20;99.90
3954;DHT22;1991;48.682;9.030;2023-12-29T04:32:06;8.20;99.90
3954;DHT22;1991;48.682;9.030;2023-12-29T04:34:31;8.20;99.90
3954;DHT22;1991;48.682;9.030;2023-12-29T04:36:57;8.00;99.90
3954;DHT22;1991;48.682;9.030;2023-12-29T04:39:23;7.90;99.90
3954;DHT22;1991;48.682;9.030;2023-12-29T04:41:50;7.90;99.90
3954;DHT22;1991;48.682;9.030;2023-12-29T04:44:15;7.80;99.90
3954;DHT22;1991;48.682;9.030;2023-12-29T04:46:41;7.80;99.90
3954;DHT22;1991;48.682;9.030;2023-12-29T04:49:06;7.90;99.90
3954;DHT22;1991;48.682;9.030;2023-12-29T04:51:32;7.90;99.90
3954;DHT22;1991;48.682;9.030;2023-12-29T04:53:58;7.90;99.90
3954;DHT22;1991;48.682;9.030;2023-12-29T04:56:23;7.80;99.90
3954;DHT22;1991;48.682;9.030;2023-12-29T04:58:51;7.70;99.90
3954;DHT22;1991;48.682;9.030;2023-12-29T05:01:17;7.70;99.90
3954;DHT22;1991;48.682;9.030;2023-12-29T05:03:42;7.70;99.90
3954;DHT22;1991;48.682;9.030;2023-12-29T05:06:08;7.90;99.90
3954;DHT22;1991;48.682;9.030;2023-12-29T05:08:33;7.80;99.90
3954;DHT22;1991;48.682;9.030;2023-12-29T05:11:00;7.80;99.90
3954;DHT22;1991;48.682;9.030;2023-12-29T05:13:26;7.90;99.90
3954;DHT22;1991;48.682;9.030;2023-12-29T05:15:51;7.90;99.90
3954;DHT22;1991;48.682;9.030;2023-12-29T05:18:17;7.90;99.90
3954;DHT22;1991;48.682;9.030;2023-12-29T05:20:43;7.90;99.90
3954;DHT22;1991;48.682;9.030;2023-12-29T05:23:08;7.90;99.90
3954;DHT22;1991;48.682;9.030;2023-12-29T05:25:34;8.00;99.90
3954;DHT22;1991;48.682;9.030;2023-12-29T05:27:59;8.00;99.90
3954;DHT22;1991;48.682;9.030;2023-12-29T05:30:25;8.00;99.90
3954;DHT22;1991;48.682;9.030;2023-12-29T05:32:53;8.00;99.90
3954;DHT22;1991;48.682;9.030;2023-12-29T05:35:18;8.10;99.90
3954;DHT22;1991;48.682;9.030;2023-12-29T05:37:44;8.10;99.90
3954;DHT22;1991;48.682;9.030;2023-12-29T05:40:10;8.10;99.90
3954;DHT22;1991;48.682;9.030;2023-12-29T05:42:36;8.10;99.90
3954;DHT22;1991;48.682;9.030;2023-12-29T05:45:01;8.10;99.90
3954;DHT22;1991;48.682;9.030;2023-12-29T05:47:27;8.10;99.90
3954;DHT22;1991;48.682;9.030;2023-12-29T05:49:53;8.20;99.90
3954;DHT22;1991;48.682;9.030;2023-12-29T05:52:18;8.20;99.90
3954;DHT22;1991;48.682;9.030;2023-12-29T05:54:44;8.20;99.90
3954;DHT22;1991;48.682;9.030;2023-12-29T05:57:09;8.20;99.90
3954;DHT22;1991;48.682;9.030;2023-12-29T05:59:36;8.30;99.90
3954;DHT22;1991;48.682;9.030;2023-12-29T06:02:01;8.20;99.90
3954;DHT22;1991;48.682;9.030;2023-12-29T06:04:27;8.30;99.90
3954;DHT22;1991;48.682;9.030;2023-12-29T06:06:53;8.30;99.90
3954;DHT22;1991;48.682;9.030;2023-12-29T06:09:19;8.30;99.90
3954;DHT22;1991;48.682;9.030;2023-12-29T06:11:44;8.30;99.90
3954;DHT22;1991;48.682;9.030;2023-12-29T06:14:10;8.30;99.90
3954;DHT22;1991;48.682;9.030;2023-12-29T06:16:36;8.30;99.90
3954;DHT22;1991;48.682;9.030;2023-12-29T06:19:01;8.30;99.90
3954;DHT22;1991;48.682;9.030;2023-12-29T06:21:27;8.30;99.90
3954;DHT22;1991;48.682;9.030;2023-12-29T06:23:52;8.30;99.90
3954;DHT22;1991;48.682;9.030;2023-12-29T06:26:19;8.30;99.90
3954;DHT22;1991;48.682;9.030;2023-12-29T06:28:46;8.20;99.90
3954;DHT22;1991;48.682;9.030;2023-12-29T06:31:12;8.20;99.90
3954;DHT22;1991;48.682;9.030;2023-12-29T06:33:44;8.20;99.90
3954;DHT22;1991;48.682;9.030;2023-12-29T06:36:10;8.20;99.90
3954;DHT22;1991;48.682;9.030;2023-12-29T06:38:36;8.20;99.90
3954;DHT22;1991;48.682;9.030;2023-12-29T06:41:02;8.20;99.90
3954;DHT22;1991;48.682;9.030;2023-12-29T06:43:29;8.30;99.90
3954;DHT22;1991;48.682;9.030;2023-12-29T06:45:55;8.30;99.90
3954;DHT22;1991;48.682;9.030;2023-12-29T06:48:21;8.30;99.90
3954;DHT22;1991;48.682;9.030;2023-12-29T06:50:46;8.30;99.90
3954;DHT22;1991;48.682;9.030;2023-12-29T06:53:12;8.30;99.90
3954;DHT22;1991;48.682;9.030;2023-12-29T06:55:38;8.30;99.90
3954;DHT22;1991;48.682;9.030;2023-12-29T06:58:04;8.20;99.90
3954;DHT22;1991;48.682;9.030;2023-12-29T07:00:30;8.20;99.90
3954;DHT22;1991;48.682;9.030;2023-12-29T07:02:56;8.20;99.90
3954;DHT22;1991;48.682;9.030;2023-12-29T07:05:22;8.30;99.90
3954;DHT22;1991;48.682;9.030;2023-12-29T07:07:47;8.20;99.90
3954;DHT22;1991;48.682;9.030;2023-12-29T07:10:13;8.20;99.90
3954;DHT22;1991;48.682;9.030;2023-12-29T07:12:40;8.20;99.90
3954;DHT22;1991;48.682;9.030;2023-12-29T07:15:06;8.20;99.90
3954;DHT22;1991;48.682;9.030;2023-12-29T07:17:32;8.20;99.90
3954;DHT22;1991;48.682;9.030;2023-12-29T07:19:58;8.20;99.90
3954;DHT22;1991;48.682;9.030;2023-12-29T07:22:23;8.20;99.90
3954;DHT22;1991;48.682;9.030;2023-12-29T07:24:49;8.20;99.90
3954;DHT22;1991;48.682;9.030;2023-12-29T07:27:15;8.20;99.90
3954;DHT22;1991;48.682;9.030;2023-12-29T07:29:41;8.30;99.90
3954;DHT22;1991;48.682;9.030;2023-12-29T07:32:06;8.30;99.90
3954;DHT22;1991;48.682;9.030;2023-12-29T07:34:32;8.30;99.90
3954;DHT22;1991;48.682;9.030;2023-12-29T07:36:58;8.30;99.90
3954;DHT22;1991;48.682;9.030;2023-12-29T07:39:24;8.40;99.90
3954;DHT22;1991;48.682;9.030;2023-12-29T07:41:49;8.40;99.90
3954;DHT22;1991;48.682;9.030;2023-12-29T07:44:16;8.40;99.90
3954;DHT22;1991;48.682;9.030;2023-12-29T07:46:43;8.50;99.90
3954;DHT22;1991;48.682;9.030;2023-12-29T07:49:10;8.50;99.90
3954;DHT22;1991;48.682;9.030;2023-12-29T07:51:39;8.50;99.90
3954;DHT22;1991;48.682;9.030;2023-12-29T07:54:06;8.50;99.90
3954;DHT22;1991;48.682;9.030;2023-12-29T07:56:32;8.50;99.90
3954;DHT22;1991;48.682;9.030;2023-12-29T07:58:57;8.50;99.90
3954;DHT22;1991;48.682;9.030;2023-12-29T08:01:23;8.50;99.90
3954;DHT22;1991;48.682;9.030;2023-12-29T08:03:49;8.60;99.90
3954;DHT22;1991;48.682;9.030;2023-12-29T08:06:14;8.60;99.90
3954;DHT22;1991;48.682;9.030;2023-12-29T08:08:40;8.60;99.90
3954;DHT22;1991;48.682;9.030;2023-12-29T08:11:05;8.60;99.90
3954;DHT22;1991;48.682;9.030;2023-12-29T08:13:31;8.60;99.90
3954;DHT22;1991;48.682;9.030;2023-12-29T08:15:57;8.70;99.90
3954;DHT22;1991;48.682;9.030;2023-12-29T08:18:22;8.70;99.90
3954;DHT22;1991;48.682;9.030;2023-12-29T08:20:48;8.80;99.90
3954;DHT22;1991;48.682;9.030;2023-12-29T08:23:13;8.80;99.90
3954;DHT22;1991;48.682;9.030;2023-12-29T08:25:39;8.80;99.90
3954;DHT22;1991;48.682;9.030;2023-12-29T08:28:05;8.80;99.90
3954;DHT22;1991;48.682;9.030;2023-12-29T08:30:33;8.80;99.90
3954;DHT22;1991;48.682;9.030;2023-12-29T08:32:59;9.10;99.90
3954;DHT22;1991;48.682;9.030;2023-12-29T08:35:24;9.50;99.90
3954;DHT22;1991;48.682;9.030;2023-12-29T08:37:50;9.50;99.90
3954;DHT22;1991;48.682;9.030;2023-12-29T08:40:16;9.40;99.90
3954;DHT22;1991;48.682;9.030;2023-12-29T08:42:41;9.30;99.90
3954;DHT22;1991;48.682;9.030;2023-12-29T08:45:07;9.30;99.90
3954;DHT22;1991;48.682;9.030;2023-12-29T08:47:33;9.30;99.90
3954;DHT22;1991;48.682;9.030;2023-12-29T08:49:58;9.30;99.90
3954;DHT22;1991;48.682;9.030;2023-12-29T08:52:24;9.20;99.90
3954;DHT22;1991;48.682;9.030;2023-12-29T08:54:49;9.10;99.90
3954;DHT22;1991;48.682;9.030;2023-12-29T08:57:15;9.10;99.90
3954;DHT22;1991;48.682;9.030;2023-12-29T08:59:41;9.00;99.90
3954;DHT22;1991;48.682;9.030;2023-12-29T09:02:06;8.90;99.90
3954;DHT22;1991;48.682;9.030;2023-12-29T09:04:32;8.90;99.90
3954;DHT22;1991;48.682;9.030;2023-12-29T09:06:57;8.90;99.90
3954;DHT22;1991;48.682;9.030;2023-12-29T09:09:23;8.90;99.90
3954;DHT22;1991;48.682;9.030;2023-12-29T09:11:48;9.00;99.90
3954;DHT22;1991;48.682;9.030;2023-12-29T09:14:14;9.30;99.90
3954;DHT22;1991;48.682;9.030;2023-12-29T09:16:41;9.50;99.90
3954;DHT22;1991;48.682;9.030;2023-12-29T09:19:07;9.50;99.90
3954;DHT22;1991;48.682;9.030;2023-12-29T09:21:33;9.50;99.90
3954;DHT22;1991;48.682;9.030;2023-12-29T09:23:59;9.60;99.90
3954;DHT22;1991;48.682;9.030;2023-12-29T09:26:24;9.50;99.90
3954;DHT22;1991;48.682;9.030;2023-12-29T09:28:50;9.50;99.90
3954;DHT22;1991;48.682;9.030;2023-12-29T09:31:15;9.50;99.90
3954;DHT22;1991;48.682;9.030;2023-12-29T09:33:41;9.60;99.90
3954;DHT22;1991;48.682;9.030;2023-12-29T09:36:07;9.90;99.90
3954;DHT22;1991;48.682;9.030;2023-12-29T09:38:33;10.10;99.90
3954;DHT22;1991;48.682;9.030;2023-12-29T09:41:02;10.20;99.90
3954;DHT22;1991;48.682;9.030;2023-12-29T09:43:31;10.40;99.90
3954;DHT22;1991;48.682;9.030;2023-12-29T09:45:58;10.50;99.90
3954;DHT22;1991;48.682;9.030;2023-12-29T09:48:25;10.20;99.90
3954;DHT22;1991;48.682;9.030;2023-12-29T09:50:52;10.20;99.90
3954;DHT22;1991;48.682;9.030;2023-12-29T09:53:20;10.10;99.90
3954;DHT22;1991;48.682;9.030;2023-12-29T09:55:48;10.40;99.90
3954;DHT22;1991;48.682;9.030;2023-12-29T09:58:15;10.50;99.90
3954;DHT22;1991;48.682;9.030;2023-12-29T10:00:42;10.70;99.90
3954;DHT22;1991;48.682;9.030;2023-12-29T10:03:08;10.70;99.90
3954;DHT22;1991;48.682;9.030;2023-12-29T10:05:34;10.60;99.90
3954;DHT22;1991;48.682;9.030;2023-12-29T10:08:02;10.90;99.90
3954;DHT22;1991;48.682;9.030;2023-12-29T10:10:31;13.60;99.90
3954;DHT22;1991;48.682;9.030;2023-12-29T10:12:57;14.90;99.90
3954;DHT22;1991;48.682;9.030;2023-12-29T10:15:37;15.40;99.90
3954;DHT22;1991;48.682;9.030;2023-12-29T10:18:18;15.00;99.90
3954;DHT22;1991;48.682;9.030;2023-12-29T10:23:39;17.40;99.90
3954;DHT22;1991;48.682;9.030;2023-12-29T10:26:07;16.60;99.70
3954;DHT22;1991;48.682;9.030;2023-12-29T10:28:35;17.10;96.70
3954;DHT22;1991;48.682;9.030;2023-12-29T10:31:01;15.90;99.10
3954;DHT22;1991;48.682;9.030;2023-12-29T10:33:27;14.90;99.90
3954;DHT22;1991;48.682;9.030;2023-12-29T10:36:02;17.30;98.70
3954;DHT22;1991;48.682;9.030;2023-12-29T10:38:29;17.20;97.50
3954;DHT22;1991;48.682;9.030;2023-12-29T10:41:00;20.70;90.20
3954;DHT22;1991;48.682;9.030;2023-12-29T10:43:35;21.80;82.50
3954;DHT22;1991;48.682;9.030;2023-12-29T10:46:07;23.50;73.10
3954;DHT22;1991;48.682;9.030;2023-12-29T10:48:37;24.20;68.60
3954;DHT22;1991;48.682;9.030;2023-12-29T10:51:03;25.30;64.20
3954;DHT22;1991;48.682;9.030;2023-12-29T10:53:33;26.20;59.90
3954;DHT22;1991;48.682;9.030;2023-12-29T10:55:59;25.30;59.00
3954;DHT22;1991;48.682;9.030;2023-12-29T10:58:28;27.80;57.00
3954;DHT22;1991;48.682;9.030;2023-12-29T11:00:58;29.40;53.00
3954;DHT22;1991;48.682;9.030;2023-12-29T11:03:23;29.50;50.30
3954;DHT22;1991;48.682;9.030;2023-12-29T11:05:50;29.60;50.00
3954;DHT22;1991;48.682;9.030;2023-12-29T11:08:18;29.50;48.70
3954;DHT22;1991;48.682;9.030;2023-12-29T11:10:44;29.40;49.70
3954;DHT22;1991;48.682;9.030;2023-12-29T11:13:11;29.60;48.60
3954;DHT22;1991;48.682;9.030;2023-12-29T11:15:42;29.20;47.40
3954;DHT22;1991;48.682;9.030;2023-12-29T11:18:15;29.60;47.90
3954;DHT22;1991;48.682;9.030;2023-12-29T11:20:41;30.30;47.30
3954;DHT22;1991;48.682;9.030;2023-12-29T11:23:09;30.80;45.80
3954;DHT22;1991;48.682;9.030;2023-12-29T11:25:35;29.50;45.80
3954;DHT22;1991;48.682;9.030;2023-12-29T11:28:00;26.90;48.40
3954;DHT22;1991;48.682;9.030;2023-12-29T11:30:27;26.80;49.90
3954;DHT22;1991;48.682;9.030;2023-12-29T11:33:23;26.30;49.70
3954;DHT22;1991;48.682;9.030;2023-12-29T11:43:27;24.60;51.90
3954;DHT22;1991;48.682;9.030;2023-12-29T11:45:53;22.80;53.40
3954;DHT22;1991;48.682;9.030;2023-12-29T11:48:53;23.90;53.10
3954;DHT22;1991;48.682;9.030;2023-12-29T11:54:04;25.00;52.10
3954;DHT22;1991;48.682;9.030;2023-12-29T11:56:35;26.80;50.50
3954;DHT22;1991;48.682;9.030;2023-12-29T12:01:43;28.10;47.00
3954;DHT22;1991;48.682;9.030;2023-12-29T12:04:38;27.20;48.10
3954;DHT22;1991;48.682;9.030;2023-12-29T12:07:15;26.40;48.20
3954;DHT22;1991;48.682;9.030;2023-12-29T12:09:41;25.00;49.70
3954;DHT22;1991;48.682;9.030;2023-12-29T12:12:07;24.10;52.00
3954;DHT22;1991;48.682;9.030;2023-12-29T12:14:51;23.60;52.70
3954;DHT22;1991;48.682;9.030;2023-12-29T12:17:33;21.70;55.70
3954;DHT22;1991;48.682;9.030;2023-12-29T12:20:07;20.20;58.20
3954;DHT22;1991;48.682;9.030;2023-12-29T12:22:37;21.70;58.40
3954;DHT22;1991;48.682;9.030;2023-12-29T12:25:03;22.30;56.20
3954;DHT22;1991;48.682;9.030;2023-12-29T12:27:30;23.50;54.30
3954;DHT22;1991;48.682;9.030;2023-12-29T12:29:58;25.00;52.00
3954;DHT22;1991;48.682;9.030;2023-12-29T12:32:26;25.30;51.50
3954;DHT22;1991;48.682;9.030;2023-12-29T12:34:52;24.90;50.60
3954;DHT22;1991;48.682;9.030;2023-12-29T12:37:26;24.50;51.30
3954;DHT22;1991;48.682;9.030;2023-12-29T12:39:52;23.40;52.80
3954;DHT22;1991;48.682;9.030;2023-12-29T12:42:19;22.00;55.40
3954;DHT22;1991;48.682;9.030;2023-12-29T12:45:04;23.10;55.00
3954;DHT22;1991;48.682;9.030;2023-12-29T12:47:43;25.30;51.90
3954;DHT22;1991;48.682;9.030;2023-12-29T12:50:13;26.40;49.80
3954;DHT22;1991;48.682;9.030;2023-12-29T12:52:39;27.50;48.70
3954;DHT22;1991;48.682;9.030;2023-12-29T12:55:06;25.90;48.20
3954;DHT22;1991;48.682;9.030;2023-12-29T12:57:33;25.70;49.40
3954;DHT22;1991;48.682;9.030;2023-12-29T12:59:59;25.00;49.10
3954;DHT22;1991;48.682;9.030;2023-12-29T13:02:25;22.20;52.50
3954;DHT22;1991;48.682;9.030;2023-12-29T13:04:51;23.00;53.70
3954;DHT22;1991;48.682;9.030;2023-12-29T13:07:18;23.80;50.90
3954;DHT22;1991;48.682;9.030;2023-12-29T13:09:45;24.60;49.50
3954;DHT22;1991;48.682;9.030;2023-12-29T13:12:12;22.80;51.00
3954;DHT22;1991;48.682;9.030;2023-12-29T13:14:42;23.30;52.60
3954;DHT22;1991;48.682;9.030;2023-12-29T13:17:09;24.60;50.20
3954;DHT22;1991;48.682;9.030;2023-12-29T13:19:39;24.60;49.40
3954;DHT22;1991;48.682;9.030;2023-12-29T13:22:09;24.20;49.10
3954;DHT22;1991;48.682;9.030;2023-12-29T13:24:35;21.60;51.20
3954;DHT22;1991;48.682;9.030;2023-12-29T13:27:07;19.70;55.20
3954;DHT22;1991;48.682;9.030;2023-12-29T13:29:35;17.80;60.20
3954;DHT22;1991;48.682;9.030;2023-12-29T13:32:14;16.00;64.30
3954;DHT22;1991;48.682;9.030;2023-12-29T13:34:56;15.10;68.30
3954;DHT22;1991;48.682;9.030;2023-12-29T13:37:37;14.50;71.50
3954;DHT22;1991;48.682;9.030;2023-12-29T13:42:41;14.50;72.60
3954;DHT22;1991;48.682;9.030;2023-12-29T13:45:09;16.90;69.70
3954;DHT22;1991;48.682;9.030;2023-12-29T13:47:37;17.60;64.80
3954;DHT22;1991;48.682;9.030;2023-12-29T13:50:03;17.00;64.80
3954;DHT22;1991;48.682;9.030;2023-12-29T13:52:29;16.40;65.80
3954;DHT22;1991;48.682;9.030;2023-12-29T13:54:55;15.60;67.90
3954;DHT22;1991;48.682;9.030;2023-12-29T13:57:33;14.70;70.00
3954;DHT22;1991;48.682;9.030;2023-12-29T14:00:20;14.20;72.20
3954;DHT22;1991;48.682;9.030;2023-12-29T14:05:28;13.50;77.20
3954;DHT22;1991;48.682;9.030;2023-12-29T14:10:35;13.10;79.10
3954;DHT22;1991;48.682;9.030;2023-12-29T14:13:08;13.10;79.50
3954;DHT22;1991;48.682;9.030;2023-12-29T14:15:37;13.00;79.10
3954;DHT22;1991;48.682;9.030;2023-12-29T14:20:38;13.20;79.80
3954;DHT22;1991;48.682;9.030;2023-12-29T14:23:05;13.00;80.80
3954;DHT22;1991;48.682;9.030;2023-12-29T14:25:34;13.50;80.00
3954;DHT22;1991;48.682;9.030;2023-12-29T14:28:02;14.10;77.50
3954;DHT22;1991;48.682;9.030;2023-12-29T14:30:28;13.70;77.10
3954;DHT22;1991;48.682;9.030;2023-12-29T14:32:57;13.80;77.60
3954;DHT22;1991;48.682;9.030;2023-12-29T14:35:23;13.80;77.90
3954;DHT22;1991;48.682;9.030;2023-12-29T14:37:49;14.00;77.40
3954;DHT22;1991;48.682;9.030;2023-12-29T14:40:15;13.80;77.90
3954;DHT22;1991;48.682;9.030;2023-12-29T14:42:40;13.50;77.80
3954;DHT22;1991;48.682;9.030;2023-12-29T14:45:07;13.30;78.10
3954;DHT22;1991;48.682;9.030;2023-12-29T14:47:33;13.00;79.50
3954;DHT22;1991;48.682;9.030;2023-12-29T14:49:59;12.70;80.50
3954;DHT22;1991;48.682;9.030;2023-12-29T14:52:24;12.60;81.50
3954;DHT22;1991;48.682;9.030;2023-12-29T14:54:51;12.30;82.60
3954;DHT22;1991;48.682;9.030;2023-12-29T14:57:16;12.00;83.10
3954;DHT22;1991;48.682;9.030;2023-12-29T14:59:42;11.90;84.50
3954;DHT22;1991;48.682;9.030;2023-12-29T15:02:08;11.60;85.10
3954;DHT22;1991;48.682;9.030;2023-12-29T15:04:34;11.50;86.40
3954;DHT22;1991;48.682;9.030;2023-12-29T15:07:00;11.40;87.60
3954;DHT22;1991;48.682;9.030;2023-12-29T15:09:26;11.40;88.20
3954;DHT22;1991;48.682;9.030;2023-12-29T15:11:51;11.20;88.80
3954;DHT22;1991;48.682;9.030;2023-12-29T15:14:18;11.20;90.10
3954;DHT22;1991;48.682;9.030;2023-12-29T15:16:45;11.10;90.40
3954;DHT22;1991;48.682;9.030;2023-12-29T15:19:11;11.00;90.20
3954;DHT22;1991;48.682;9.030;2023-12-29T15:21:38;10.80;90.40
3954;DHT22;1991;48.682;9.030;2023-12-29T15:24:07;10.70;90.90
3954;DHT22;1991;48.682;9.030;2023-12-29T15:26:33;10.50;91.10
3954;DHT22;1991;48.682;9.030;2023-12-29T15:28:59;10.30;91.80
3954;DHT22;1991;48.682;9.030;2023-12-29T15:31:25;10.20;92.80
3954;DHT22;1991;48.682;9.030;2023-12-29T15:33:51;10.00;93.10
3954;DHT22;1991;48.682;9.030;2023-12-29T15:36:18;9.90;93.20
3954;DHT22;1991;48.682;9.030;2023-12-29T15:38:49;9.80;93.20
3954;DHT22;1991;48.682;9.030;2023-12-29T15:41:14;9.70;93.50
3954;DHT22;1991;48.682;9.030;2023-12-29T15:43:40;9.70;93.90
3954;DHT22;1991;48.682;9.030;2023-12-29T15:46:15;9.50;93.90
3954;DHT22;1991;48.682;9.030;2023-12-29T15:48:44;9.50;93.60
3954;DHT22;1991;48.682;9.030;2023-12-29T15:51:11;9.50;93.80
3954;DHT22;1991;48.682;9.030;2023-12-29T15:53:36;9.40;94.20
3954;DHT22;1991;48.682;9.030;2023-12-29T15:56:02;9.40;94.30
3954;DHT22;1991;48.682;9.030;2023-12-29T15:58:29;9.30;94.40
3954;DHT22;1991;48.682;9.030;2023-12-29T16:00:55;9.40;94.50
3954;DHT22;1991;48.682;9.030;2023-12-29T16:03:20;9.30;94.60
3954;DHT22;1991;48.682;9.030;2023-12-29T16:05:46;9.20;94.80
3954;DHT22;1991;48.682;9.030;2023-12-29T16:08:12;9.20;95.10
3954;DHT22;1991;48.682;9.030;2023-12-29T16:10:37;9.10;95.30
3954;DHT22;1991;48.682;9.030;2023-12-29T16:13:03;9.10;95.70
3954;DHT22;1991;48.682;9.030;2023-12-29T16:15:29;9.10;95.80
3954;DHT22;1991;48.682;9.030;2023-12-29T16:17:55;9.00;96.30
3954;DHT22;1991;48.682;9.030;2023-12-29T16:20:21;9.00;96.70
3954;DHT22;1991;48.682;9.030;2023-12-29T16:22:46;8.90;96.90
3954;DHT22;1991;48.682;9.030;2023-12-29T16:25:13;8.90;97.20
3954;DHT22;1991;48.682;9.030;2023-12-29T16:27:41;8.90;97.70
3954;DHT22;1991;48.682;9.030;2023-12-29T16:30:07;8.80;98.00
3954;DHT22;1991;48.682;9.030;2023-12-29T16:32:33;8.80;98.80
3954;DHT22;1991;48.682;9.030;2023-12-29T16:34:59;8.80;98.60
3954;DHT22;1991;48.682;9.030;2023-12-29T16:37:25;8.80;99.00
3954;DHT22;1991;48.682;9.030;2023-12-29T16:39:53;8.80;99.40
3954;DHT22;1991;48.682;9.030;2023-12-29T16:42:19;8.60;99.90